Time;durP1;ratioP1;P1;durP2;ratioP2;P2;SDS_P1;SDS_P2;PMS_P1;PMS_P2;Temp;Humidity;BMP_temperature;BMP_pressure;BME280_temperature;BME280_humidity;BME280_pressure;Samples;Min_cycle;Max_cycle;Signal;HPM_P1;HPM_P2
2023/02/18 00:03:02;;;;;;;;;;;10.00;99.90;;;;;;8375446;28;20030;-69
2023/02/18 00:07:04;;;;;;;;;;;10.00;99.90;;;;;;8370403;28;19949;-69
2023/02/18 00:11:06;;;;;;;;;;;10.00;99.90;;;;;;8390683;28;19936;-69
2023/02/18 00:15:08;;;;;;;;;;;9.90;99.90;;;;;;8384101;28;19951;-69
2023/02/18 00:19:11;;;;;;;;;;;9.90;99.90;;;;;;8390701;28;19924;-69
2023/02/18 00:23:13;;;;;;;;;;;9.90;99.90;;;;;;8398793;28;19931;-69
2023/02/18 00:27:14;;;;;;;;;;;9.90;99.90;;;;;;8387777;28;20402;-69
2023/02/18 00:31:18;;;;;;;;;;;9.80;99.90;;;;;;8388892;28;19955;-68
2023/02/18 00:35:19;;;;;;;;;;;9.80;99.90;;;;;;8384977;28;20013;-69
2023/02/18 00:39:21;;;;;;;;;;;9.80;99.90;;;;;;8384873;28;19979;-69
2023/02/18 00:43:23;;;;;;;;;;;9.70;99.90;;;;;;8366855;28;19931;-69
2023/02/18 00:47:24;;;;;;;;;;;9.70;99.90;;;;;;8384945;28;19924;-69
2023/02/18 00:51:26;;;;;;;;;;;9.70;99.90;;;;;;8393028;28;19975;-69
2023/02/18 00:55:28;;;;;;;;;;;9.70;99.90;;;;;;8386564;28;20610;-69
2023/02/18 00:59:29;;;;;;;;;;;9.70;99.90;;;;;;8392580;28;19930;-69
2023/02/18 01:03:31;;;;;;;;;;;9.60;99.90;;;;;;8385829;28;20011;-69
2023/02/18 01:07:33;;;;;;;;;;;9.60;99.90;;;;;;8368577;28;19924;-69
2023/02/18 01:11:34;;;;;;;;;;;9.60;99.90;;;;;;8381334;28;20380;-69
2023/02/18 01:15:36;;;;;;;;;;;9.60;99.90;;;;;;8364136;28;19975;-69
2023/02/18 01:19:38;;;;;;;;;;;9.50;99.90;;;;;;8382650;28;19975;-69
2023/02/18 01:23:40;;;;;;;;;;;9.50;99.90;;;;;;8384029;28;19935;-69
2023/02/18 01:27:41;;;;;;;;;;;9.50;99.90;;;;;;8362362;28;19933;-68
2023/02/18 01:42:02;;;;;;;;;;;9.50;99.90;;;;;;8348716;28;20383;-69
2023/02/18 01:46:04;;;;;;;;;;;9.50;99.90;;;;;;8389658;28;20066;-69
2023/02/18 01:50:06;;;;;;;;;;;9.50;99.90;;;;;;8383837;28;19990;-69
2023/02/18 01:54:10;;;;;;;;;;;9.50;99.90;;;;;;8383505;28;19924;-69
2023/02/18 01:58:12;;;;;;;;;;;9.50;99.90;;;;;;8391786;28;19932;-69
2023/02/18 02:02:15;;;;;;;;;;;9.60;99.90;;;;;;8387135;28;19946;-69
2023/02/18 02:06:19;;;;;;;;;;;9.60;99.90;;;;;;8392440;28;19986;-69
2023/02/18 02:10:20;;;;;;;;;;;9.60;99.90;;;;;;8388108;28;19938;-69
2023/02/18 02:14:41;;;;;;;;;;;9.60;99.90;;;;;;8395181;28;20477;-69
2023/02/18 02:18:54;;;;;;;;;;;9.70;99.90;;;;;;8395979;28;19928;-69
2023/02/18 02:23:15;;;;;;;;;;;9.70;99.90;;;;;;8383520;28;20380;-69
2023/02/18 02:32:39;;;;;;;;;;;9.80;99.90;;;;;;8391289;28;20013;-69
2023/02/18 02:36:50;;;;;;;;;;;9.80;99.90;;;;;;8371158;28;20295;-69
2023/02/18 02:41:01;;;;;;;;;;;9.80;99.90;;;;;;8383184;28;19929;-69
2023/02/18 02:45:08;;;;;;;;;;;9.90;99.90;;;;;;8388868;28;20467;-69
2023/02/18 02:49:28;;;;;;;;;;;9.90;99.90;;;;;;8390127;28;20420;-69
2023/02/18 02:53:32;;;;;;;;;;;9.90;99.90;;;;;;8390767;28;20007;-69
2023/02/18 02:57:48;;;;;;;;;;;9.90;99.90;;;;;;8393373;28;19924;-69
2023/02/18 03:01:49;;;;;;;;;;;10.00;99.90;;;;;;8391135;28;19946;-68
2023/02/18 03:06:08;;;;;;;;;;;10.00;99.90;;;;;;8391630;28;19973;-69
2023/02/18 03:10:12;;;;;;;;;;;10.00;99.90;;;;;;8391224;28;20039;-69
2023/02/18 03:14:21;;;;;;;;;;;10.00;99.90;;;;;;8381529;28;20349;-68
2023/02/18 03:18:29;;;;;;;;;;;10.10;99.90;;;;;;8388861;28;20317;-69
2023/02/18 03:22:34;;;;;;;;;;;10.00;99.90;;;;;;8394055;28;20532;-68
2023/02/18 03:26:38;;;;;;;;;;;10.00;99.90;;;;;;8391724;28;20260;-69
2023/02/18 03:30:43;;;;;;;;;;;10.10;99.90;;;;;;8392559;28;19924;-68
2023/02/18 03:34:47;;;;;;;;;;;10.10;99.90;;;;;;8391624;28;19936;-68
2023/02/18 03:39:09;;;;;;;;;;;10.10;99.90;;;;;;8387024;28;19924;-68
2023/02/18 03:43:11;;;;;;;;;;;10.10;99.90;;;;;;8383840;28;19932;-68
2023/02/18 03:47:12;;;;;;;;;;;10.10;99.90;;;;;;8382793;28;19928;-68
2023/02/18 03:51:14;;;;;;;;;;;10.10;99.90;;;;;;8372771;28;20280;-68
2023/02/18 03:55:16;;;;;;;;;;;10.10;99.90;;;;;;8390689;28;19938;-69
2023/02/18 03:59:17;;;;;;;;;;;10.10;99.90;;;;;;8374120;28;19925;-68
2023/02/18 04:03:19;;;;;;;;;;;10.20;99.90;;;;;;8390291;28;19925;-71
2023/02/18 04:22:31;;;;;;;;;;;10.30;99.90;;;;;;8386402;28;19923;-71
2023/02/18 04:26:33;;;;;;;;;;;10.30;99.90;;;;;;8387840;28;19935;-71
2023/02/18 04:30:34;;;;;;;;;;;10.30;99.90;;;;;;8385989;28;19935;-71
2023/02/18 04:34:36;;;;;;;;;;;10.30;99.90;;;;;;8386759;28;19977;-71
2023/02/18 04:38:38;;;;;;;;;;;10.30;99.90;;;;;;8377149;28;19924;-71
2023/02/18 04:42:40;;;;;;;;;;;10.30;99.90;;;;;;8378116;28;19929;-71
2023/02/18 04:46:41;;;;;;;;;;;10.20;99.90;;;;;;8388753;28;19952;-71
2023/02/18 04:50:43;;;;;;;;;;;10.10;99.90;;;;;;8392297;28;19929;-72
2023/02/18 04:54:45;;;;;;;;;;;10.10;99.90;;;;;;8370639;28;20341;-71
2023/02/18 04:58:46;;;;;;;;;;;10.10;99.90;;;;;;8389337;28;19924;-71
2023/02/18 05:02:48;;;;;;;;;;;10.00;99.90;;;;;;8388326;28;19925;-71
2023/02/18 05:06:50;;;;;;;;;;;10.00;99.90;;;;;;8394134;28;19928;-71
2023/02/18 05:10:51;;;;;;;;;;;10.00;99.90;;;;;;8392866;28;19928;-71
2023/02/18 05:14:53;;;;;;;;;;;10.00;99.90;;;;;;8378684;28;20322;-71
2023/02/18 05:18:54;;;;;;;;;;;10.00;99.90;;;;;;8375221;28;19974;-72
2023/02/18 05:22:56;;;;;;;;;;;10.00;99.90;;;;;;8385424;28;19925;-72
2023/02/18 05:26:58;;;;;;;;;;;9.90;99.90;;;;;;8388866;28;19928;-72
2023/02/18 05:30:59;;;;;;;;;;;9.90;99.90;;;;;;8369923;28;19932;-72
2023/02/18 05:35:01;;;;;;;;;;;9.90;99.90;;;;;;8385854;28;19939;-72
2023/02/18 05:39:03;;;;;;;;;;;9.90;99.90;;;;;;8381847;28;20420;-72
2023/02/18 05:43:04;;;;;;;;;;;9.90;99.90;;;;;;8374484;28;20019;-72
2023/02/18 05:47:07;;;;;;;;;;;9.90;99.90;;;;;;8398795;28;19960;-72
2023/02/18 05:51:11;;;;;;;;;;;9.90;99.90;;;;;;8397315;28;20314;-72
2023/02/18 05:55:13;;;;;;;;;;;9.80;99.90;;;;;;8369988;28;19971;-72
2023/02/18 05:59:15;;;;;;;;;;;9.90;99.90;;;;;;8393828;28;19943;-72
2023/02/18 06:03:16;;;;;;;;;;;9.80;99.90;;;;;;8393385;28;19933;-72
2023/02/18 06:07:19;;;;;;;;;;;9.90;99.90;;;;;;8372594;28;20292;-71
2023/02/18 06:11:21;;;;;;;;;;;9.80;99.90;;;;;;8368141;28;19924;-71
2023/02/18 06:15:22;;;;;;;;;;;9.90;99.90;;;;;;8378121;28;19977;-72
2023/02/18 06:19:24;;;;;;;;;;;9.90;99.90;;;;;;8381746;28;20273;-72
2023/02/18 06:23:25;;;;;;;;;;;9.90;99.90;;;;;;8379247;28;19925;-72
2023/02/18 06:27:27;;;;;;;;;;;9.90;99.90;;;;;;8370548;28;19991;-72
2023/02/18 06:31:29;;;;;;;;;;;9.90;99.90;;;;;;8374418;28;19924;-72
2023/02/18 06:35:31;;;;;;;;;;;9.90;99.90;;;;;;8375498;28;20502;-71
2023/02/18 06:39:32;;;;;;;;;;;9.90;99.90;;;;;;8384789;28;19960;-72
2023/02/18 06:43:34;;;;;;;;;;;9.90;99.90;;;;;;8392521;28;19928;-72
2023/02/18 06:47:36;;;;;;;;;;;9.90;99.90;;;;;;8389892;28;19948;-71
2023/02/18 06:51:38;;;;;;;;;;;9.90;99.90;;;;;;8391359;28;19982;-72
2023/02/18 06:55:40;;;;;;;;;;;9.90;99.90;;;;;;8387251;28;19932;-71
2023/02/18 06:59:42;;;;;;;;;;;9.90;99.90;;;;;;8394252;28;19925;-72
2023/02/18 07:03:43;;;;;;;;;;;9.90;99.90;;;;;;8374009;28;20022;-71
2023/02/18 07:07:45;;;;;;;;;;;9.90;99.90;;;;;;8392181;28;20384;-71
2023/02/18 07:11:47;;;;;;;;;;;9.90;99.90;;;;;;8370223;28;19935;-71
2023/02/18 07:15:48;;;;;;;;;;;9.80;99.90;;;;;;8385199;28;20302;-72
2023/02/18 07:19:50;;;;;;;;;;;9.80;99.90;;;;;;8388442;28;19974;-71
2023/02/18 07:23:52;;;;;;;;;;;9.80;99.90;;;;;;8389180;28;19931;-72
2023/02/18 07:27:53;;;;;;;;;;;9.80;99.90;;;;;;8394769;28;20003;-71
2023/02/18 07:31:55;;;;;;;;;;;9.80;99.90;;;;;;8384553;28;19928;-72
2023/02/18 07:35:58;;;;;;;;;;;9.80;99.90;;;;;;8394687;28;20444;-71
2023/02/18 07:40:00;;;;;;;;;;;9.80;99.90;;;;;;8384838;28;19931;-72
2023/02/18 07:44:01;;;;;;;;;;;9.70;99.90;;;;;;8371861;28;19925;-72
2023/02/18 07:48:03;;;;;;;;;;;9.70;99.90;;;;;;8369165;28;19972;-72
2023/02/18 07:52:05;;;;;;;;;;;9.70;99.90;;;;;;8382837;28;19971;-72
2023/02/18 07:56:07;;;;;;;;;;;9.70;99.90;;;;;;8387235;28;19928;-71
2023/02/18 08:00:09;;;;;;;;;;;9.60;99.90;;;;;;8368021;28;20015;-71
2023/02/18 08:04:11;;;;;;;;;;;9.60;99.90;;;;;;8387642;28;19971;-72
2023/02/18 08:08:13;;;;;;;;;;;9.50;99.90;;;;;;8384962;28;19933;-72
2023/02/18 08:12:14;;;;;;;;;;;9.50;99.90;;;;;;8382700;28;19932;-72
2023/02/18 08:16:17;;;;;;;;;;;9.50;99.90;;;;;;8389025;28;19924;-72
2023/02/18 08:20:18;;;;;;;;;;;9.50;99.90;;;;;;8382895;28;20031;-71
2023/02/18 08:24:20;;;;;;;;;;;9.40;99.90;;;;;;8379451;28;19963;-72
2023/02/18 08:28:22;;;;;;;;;;;9.40;99.90;;;;;;8385112;28;19928;-72
2023/02/18 08:32:27;;;;;;;;;;;9.40;99.90;;;;;;8388811;28;19936;-72
2023/02/18 08:36:29;;;;;;;;;;;9.40;99.90;;;;;;8383678;28;19924;-72
2023/02/18 08:40:31;;;;;;;;;;;9.40;99.90;;;;;;8365201;28;19928;-72
2023/02/18 08:44:33;;;;;;;;;;;9.40;99.90;;;;;;8389880;28;19928;-72
2023/02/18 08:48:34;;;;;;;;;;;9.40;99.90;;;;;;8386842;28;20362;-72
2023/02/18 08:52:36;;;;;;;;;;;9.30;99.90;;;;;;8389515;28;19964;-72
2023/02/18 08:56:38;;;;;;;;;;;9.30;99.90;;;;;;8384643;28;19924;-73
2023/02/18 09:00:40;;;;;;;;;;;9.30;99.90;;;;;;8384121;28;19931;-72
2023/02/18 09:04:42;;;;;;;;;;;9.30;99.90;;;;;;8380824;28;19924;-72
2023/02/18 09:08:45;;;;;;;;;;;9.30;99.90;;;;;;8387791;28;19929;-72
2023/02/18 09:12:47;;;;;;;;;;;9.30;99.90;;;;;;8370782;28;19931;-72
2023/02/18 09:16:49;;;;;;;;;;;9.30;99.90;;;;;;8376434;28;19924;-72
2023/02/18 09:20:51;;;;;;;;;;;9.30;99.90;;;;;;8366275;28;19924;-73
2023/02/18 09:24:52;;;;;;;;;;;9.30;99.90;;;;;;8373038;28;19981;-72
2023/02/18 09:28:58;;;;;;;;;;;9.30;99.90;;;;;;8361386;28;20387;-72
2023/02/18 09:33:00;;;;;;;;;;;9.40;99.90;;;;;;8377480;28;19970;-72
2023/02/18 09:37:02;;;;;;;;;;;9.40;99.90;;;;;;8369206;28;19925;-72
2023/02/18 09:41:06;;;;;;;;;;;9.40;99.90;;;;;;8374396;28;20039;-73
2023/02/18 09:45:10;;;;;;;;;;;9.40;99.90;;;;;;8388149;28;19931;-72
2023/02/18 09:49:15;;;;;;;;;;;9.50;99.90;;;;;;8389569;28;19990;-72
2023/02/18 09:53:16;;;;;;;;;;;9.60;99.90;;;;;;8390252;28;19936;-73
2023/02/18 09:57:29;;;;;;;;;;;9.60;99.90;;;;;;8388491;28;20746;-72
2023/02/18 10:01:36;;;;;;;;;;;9.60;99.90;;;;;;8371597;28;19974;-72
2023/02/18 10:05:40;;;;;;;;;;;9.70;99.90;;;;;;8387512;28;19940;-73
2023/02/18 10:09:41;;;;;;;;;;;9.70;99.90;;;;;;8382667;28;19928;-72
2023/02/18 10:13:43;;;;;;;;;;;9.70;99.90;;;;;;8391964;28;19931;-73
2023/02/18 10:17:46;;;;;;;;;;;9.80;99.90;;;;;;8389253;28;20448;-73
2023/02/18 10:21:48;;;;;;;;;;;9.80;99.90;;;;;;8387360;28;20021;-72
2023/02/18 10:25:50;;;;;;;;;;;9.90;99.90;;;;;;8391910;28;21629;-72
2023/02/18 10:29:54;;;;;;;;;;;10.00;99.90;;;;;;8387984;28;19925;-72
2023/02/18 10:33:59;;;;;;;;;;;10.00;99.90;;;;;;8391248;28;19932;-72
2023/02/18 10:38:24;;;;;;;;;;;10.00;99.90;;;;;;8391334;28;19972;-72
2023/02/18 10:42:33;;;;;;;;;;;10.10;99.90;;;;;;8384169;28;20352;-72
2023/02/18 10:46:35;;;;;;;;;;;10.10;99.90;;;;;;8398256;28;19931;-73
2023/02/18 10:50:40;;;;;;;;;;;10.10;99.90;;;;;;8389746;28;20442;-73
2023/02/18 10:54:48;;;;;;;;;;;10.20;99.90;;;;;;8395697;28;19924;-72
2023/02/18 10:58:51;;;;;;;;;;;10.30;99.90;;;;;;8386943;28;20366;-72
2023/02/18 11:03:11;;;;;;;;;;;10.30;99.90;;;;;;8392136;28;20386;-72
2023/02/18 11:07:15;;;;;;;;;;;10.40;99.90;;;;;;8387561;28;19986;-72
2023/02/18 11:11:22;;;;;;;;;;;10.40;99.90;;;;;;8401392;28;20415;-72
2023/02/18 11:15:25;;;;;;;;;;;10.50;99.90;;;;;;8380719;28;19993;-72
2023/02/18 11:19:37;;;;;;;;;;;10.60;99.90;;;;;;8393870;28;19931;-72
2023/02/18 11:23:49;;;;;;;;;;;10.60;99.90;;;;;;8393153;28;19932;-72
2023/02/18 11:27:55;;;;;;;;;;;10.70;99.90;;;;;;8379151;28;19950;-69
2023/02/18 11:31:57;;;;;;;;;;;10.80;99.90;;;;;;8381552;28;19933;-70
2023/02/18 11:36:02;;;;;;;;;;;10.90;99.90;;;;;;8388700;28;20334;-70
2023/02/18 11:40:04;;;;;;;;;;;11.00;99.90;;;;;;8379849;28;19974;-70
2023/02/18 11:44:16;;;;;;;;;;;11.00;99.90;;;;;;8365595;28;19935;-70
2023/02/18 11:48:22;;;;;;;;;;;11.10;99.90;;;;;;8358682;28;19925;-70
2023/02/18 11:52:31;;;;;;;;;;;11.10;99.90;;;;;;8361060;28;20028;-70
2023/02/18 11:56:34;;;;;;;;;;;11.10;99.90;;;;;;8363862;28;19925;-70
2023/02/18 12:00:46;;;;;;;;;;;11.10;99.90;;;;;;8361387;28;19970;-70
2023/02/18 12:04:55;;;;;;;;;;;11.10;99.90;;;;;;8349563;28;19942;-70
2023/02/18 12:08:58;;;;;;;;;;;11.10;99.90;;;;;;8372714;28;19939;-69
2023/02/18 12:13:02;;;;;;;;;;;11.20;99.90;;;;;;8365194;28;19935;-70
2023/02/18 12:17:23;;;;;;;;;;;11.40;99.90;;;;;;8357466;28;20016;-70
2023/02/18 12:21:26;;;;;;;;;;;11.50;99.90;;;;;;8358350;28;20403;-70
2023/02/18 12:25:33;;;;;;;;;;;11.60;99.90;;;;;;8348034;28;20415;-70
2023/02/18 12:29:43;;;;;;;;;;;11.60;99.90;;;;;;8360048;28;20034;-70
2023/02/18 12:33:48;;;;;;;;;;;11.50;99.90;;;;;;8359763;28;19928;-69
2023/02/18 12:38:03;;;;;;;;;;;11.50;99.90;;;;;;8342627;28;19971;-69
2023/02/18 12:42:07;;;;;;;;;;;11.50;99.90;;;;;;8357689;28;19935;-69
2023/02/18 12:46:16;;;;;;;;;;;11.50;99.90;;;;;;8361087;28;19924;-69
2023/02/18 12:50:29;;;;;;;;;;;11.60;99.90;;;;;;8356514;28;19986;-70
2023/02/18 12:54:40;;;;;;;;;;;11.60;99.90;;;;;;8357382;28;19931;-69
2023/02/18 12:58:52;;;;;;;;;;;11.70;99.90;;;;;;8364905;28;19972;-69
2023/02/18 13:03:14;;;;;;;;;;;11.80;99.90;;;;;;8359078;28;19925;-70
2023/02/18 13:07:18;;;;;;;;;;;11.80;99.90;;;;;;8351554;28;19924;-70
2023/02/18 13:11:27;;;;;;;;;;;11.90;99.90;;;;;;8359822;28;20396;-69
2023/02/18 13:15:31;;;;;;;;;;;11.90;99.90;;;;;;8360205;28;19940;-70
2023/02/18 13:19:40;;;;;;;;;;;11.90;99.90;;;;;;8357622;28;20278;-70
2023/02/18 13:23:50;;;;;;;;;;;11.90;99.90;;;;;;8342482;28;19935;-70
2023/02/18 13:27:52;;;;;;;;;;;12.00;99.90;;;;;;8342725;28;19947;-70
2023/02/18 13:31:57;;;;;;;;;;;12.00;99.90;;;;;;8362781;28;19932;-70
2023/02/18 13:36:01;;;;;;;;;;;12.00;99.90;;;;;;8356189;28;19929;-70
2023/02/18 13:40:04;;;;;;;;;;;12.00;99.90;;;;;;8356632;28;19928;-70
2023/02/18 13:44:06;;;;;;;;;;;12.10;99.90;;;;;;8374640;28;19936;-70
2023/02/18 13:48:21;;;;;;;;;;;12.10;99.90;;;;;;8363906;28;19925;-70
2023/02/18 13:52:23;;;;;;;;;;;12.10;99.90;;;;;;8360327;28;19929;-69
2023/02/18 13:56:29;;;;;;;;;;;12.10;99.90;;;;;;8351146;28;19935;-70
2023/02/18 14:00:38;;;;;;;;;;;12.10;99.90;;;;;;8350749;28;20470;-70
2023/02/18 14:04:43;;;;;;;;;;;12.10;99.90;;;;;;8369289;28;19959;-70
2023/02/18 14:08:45;;;;;;;;;;;12.20;99.90;;;;;;8368758;28;20312;-70
2023/02/18 14:12:55;;;;;;;;;;;12.20;99.90;;;;;;8365250;28;19934;-70
2023/02/18 14:17:16;;;;;;;;;;;12.20;99.90;;;;;;8349618;28;19924;-71
2023/02/18 14:21:20;;;;;;;;;;;12.30;99.90;;;;;;8368879;28;19925;-69
2023/02/18 14:25:31;;;;;;;;;;;12.30;99.90;;;;;;8383836;28;19980;-70
2023/02/18 14:29:33;;;;;;;;;;;12.40;99.90;;;;;;8357302;28;20319;-70
2023/02/18 14:33:35;;;;;;;;;;;12.40;99.90;;;;;;8373419;28;19967;-70
2023/02/18 14:37:52;;;;;;;;;;;12.50;99.90;;;;;;8388739;28;20286;-70
2023/02/18 14:42:06;;;;;;;;;;;12.50;99.90;;;;;;8364802;28;19932;-70
2023/02/18 14:46:22;;;;;;;;;;;12.50;99.90;;;;;;8371033;28;19936;-70
2023/02/18 14:50:24;;;;;;;;;;;12.60;99.90;;;;;;8376685;28;20518;-70
2023/02/18 14:54:28;;;;;;;;;;;12.50;99.90;;;;;;8360869;28;19932;-70
2023/02/18 14:58:36;;;;;;;;;;;12.50;99.90;;;;;;8358802;28;20326;-70
2023/02/18 15:02:38;;;;;;;;;;;12.40;99.90;;;;;;8367522;28;20383;-70
2023/02/18 15:06:39;;;;;;;;;;;12.30;99.90;;;;;;8363733;28;19932;-70
2023/02/18 15:10:47;;;;;;;;;;;12.30;99.90;;;;;;8369442;28;20020;-70
2023/02/18 15:14:51;;;;;;;;;;;12.30;99.90;;;;;;8364044;28;19925;-70
2023/02/18 15:18:55;;;;;;;;;;;12.20;99.90;;;;;;8372542;28;19925;-70
2023/02/18 15:22:56;;;;;;;;;;;12.20;99.90;;;;;;8367038;28;19932;-70
2023/02/18 15:27:00;;;;;;;;;;;12.20;99.90;;;;;;8364036;28;19929;-70
2023/02/18 15:31:02;;;;;;;;;;;12.20;99.90;;;;;;8358238;28;19925;-70
2023/02/18 15:35:13;;;;;;;;;;;12.20;99.90;;;;;;8361921;28;19928;-70
2023/02/18 15:39:15;;;;;;;;;;;12.20;99.90;;;;;;8386617;28;20975;-70
2023/02/18 15:43:20;;;;;;;;;;;12.10;99.90;;;;;;8362996;28;20001;-70
2023/02/18 15:47:22;;;;;;;;;;;12.10;99.90;;;;;;8357637;28;19929;-70
2023/02/18 15:51:28;;;;;;;;;;;12.00;99.90;;;;;;8357596;28;19935;-70
2023/02/18 15:55:40;;;;;;;;;;;11.90;99.90;;;;;;8362414;28;20048;-70
2023/02/18 15:59:52;;;;;;;;;;;11.90;99.90;;;;;;8384251;28;20359;-70
2023/02/18 16:03:54;;;;;;;;;;;11.80;99.90;;;;;;8379199;28;19929;-70
2023/02/18 16:07:58;;;;;;;;;;;11.70;99.90;;;;;;8363782;28;20269;-70
2023/02/18 16:12:02;;;;;;;;;;;11.60;99.90;;;;;;8343889;28;19924;-69
2023/02/18 16:16:04;;;;;;;;;;;11.60;99.90;;;;;;8351201;28;20440;-70
2023/02/18 16:20:15;;;;;;;;;;;11.50;99.90;;;;;;8336287;28;20393;-70
2023/02/18 16:24:22;;;;;;;;;;;11.50;99.90;;;;;;8361057;28;20304;-70
2023/02/18 16:28:26;;;;;;;;;;;11.50;99.90;;;;;;8339727;28;19925;-70
2023/02/18 16:32:28;;;;;;;;;;;11.40;99.90;;;;;;8359801;28;19933;-70
2023/02/18 16:36:30;;;;;;;;;;;11.40;99.90;;;;;;8349217;28;20018;-70
2023/02/18 16:40:36;;;;;;;;;;;11.40;99.90;;;;;;8359313;28;20505;-70
2023/02/18 16:44:38;;;;;;;;;;;11.40;99.90;;;;;;8361657;28;19976;-70
2023/02/18 16:48:41;;;;;;;;;;;11.30;99.90;;;;;;8361045;28;19924;-70
2023/02/18 16:52:43;;;;;;;;;;;11.20;99.90;;;;;;8357887;28;19972;-70
2023/02/18 16:56:45;;;;;;;;;;;11.20;99.90;;;;;;8362444;28;19932;-70
2023/02/18 17:00:47;;;;;;;;;;;11.20;99.90;;;;;;8361289;28;19970;-71
2023/02/18 17:04:53;;;;;;;;;;;11.10;99.90;;;;;;8359383;28;19933;-70
2023/02/18 17:08:55;;;;;;;;;;;11.10;99.90;;;;;;8359157;28;19931;-70
2023/02/18 17:12:56;;;;;;;;;;;11.10;99.90;;;;;;8363915;28;20590;-70
2023/02/18 17:16:58;;;;;;;;;;;11.10;99.90;;;;;;8356962;28;19925;-70
2023/02/18 17:21:00;;;;;;;;;;;11.00;99.90;;;;;;8361175;28;20367;-70
2023/02/18 17:25:01;;;;;;;;;;;11.00;99.90;;;;;;8354832;28;20464;-70
2023/02/18 17:29:04;;;;;;;;;;;11.00;99.90;;;;;;8363838;28;20024;-70
2023/02/18 17:33:07;;;;;;;;;;;11.00;99.90;;;;;;8353056;28;19928;-70
2023/02/18 17:37:11;;;;;;;;;;;11.00;99.90;;;;;;8348776;28;19929;-70
2023/02/18 17:41:13;;;;;;;;;;;10.90;99.90;;;;;;8361108;28;20019;-69
2023/02/18 17:45:18;;;;;;;;;;;10.90;99.90;;;;;;8363470;28;20020;-70
2023/02/18 17:49:21;;;;;;;;;;;10.80;99.90;;;;;;8369189;28;19971;-70
2023/02/18 17:53:22;;;;;;;;;;;10.80;99.90;;;;;;8353408;28;19935;-70
2023/02/18 17:57:24;;;;;;;;;;;10.70;99.90;;;;;;8363318;28;19935;-70
2023/02/18 18:01:26;;;;;;;;;;;10.70;99.90;;;;;;8371178;28;19963;-70
2023/02/18 18:05:30;;;;;;;;;;;10.70;99.90;;;;;;8373490;28;19982;-70
2023/02/18 18:09:32;;;;;;;;;;;10.70;99.90;;;;;;8363228;28;19927;-70
2023/02/18 18:13:34;;;;;;;;;;;10.60;99.90;;;;;;8368152;28;19925;-70
2023/02/18 18:17:35;;;;;;;;;;;10.60;99.90;;;;;;8363611;28;19948;-70
2023/02/18 18:21:37;;;;;;;;;;;10.60;99.90;;;;;;8369918;28;19955;-70
2023/02/18 18:25:40;;;;;;;;;;;10.60;99.90;;;;;;8346180;28;20186;-70
2023/02/18 18:29:42;;;;;;;;;;;10.60;99.90;;;;;;8352281;28;19932;-70
2023/02/18 18:33:47;;;;;;;;;;;10.60;99.90;;;;;;8364182;28;19929;-70
2023/02/18 18:37:49;;;;;;;;;;;10.60;99.90;;;;;;8374191;28;20412;-70
2023/02/18 18:41:51;;;;;;;;;;;10.60;99.90;;;;;;8367041;28;20292;-70
2023/02/18 18:45:53;;;;;;;;;;;10.60;99.90;;;;;;8371958;28;20566;-70
2023/02/18 19:04:59;;;;;;;;;;;10.70;99.90;;;;;;8359463;28;19967;-70
2023/02/18 19:09:01;;;;;;;;;;;10.70;99.90;;;;;;8364403;28;19964;-70
2023/02/18 19:13:07;;;;;;;;;;;10.70;99.90;;;;;;8379014;28;19925;-70
2023/02/18 19:17:09;;;;;;;;;;;10.70;99.90;;;;;;8365492;28;20372;-70
2023/02/18 19:21:11;;;;;;;;;;;10.70;99.90;;;;;;8369518;28;19928;-70
2023/02/18 19:25:13;;;;;;;;;;;10.70;99.90;;;;;;8365132;28;20260;-70
2023/02/18 19:29:14;;;;;;;;;;;10.70;99.90;;;;;;8364287;28;19930;-70
2023/02/18 19:33:16;;;;;;;;;;;10.70;99.90;;;;;;8354426;28;19925;-70
2023/02/18 19:37:18;;;;;;;;;;;10.60;99.90;;;;;;8358458;28;19938;-70
2023/02/18 19:41:19;;;;;;;;;;;10.60;99.90;;;;;;8365647;28;20406;-70
2023/02/18 19:50:14;;;;;;;;;;;10.60;99.90;;;;;;8294947;28;19925;-70
2023/02/18 19:54:15;;;;;;;;;;;10.60;99.90;;;;;;8300536;28;20590;-70
2023/02/18 19:58:17;;;;;;;;;;;10.60;99.90;;;;;;8298788;28;19929;-70
2023/02/18 20:02:20;;;;;;;;;;;10.60;99.90;;;;;;8315180;28;19980;-70
2023/02/18 20:06:22;;;;;;;;;;;10.50;99.90;;;;;;8297783;28;19926;-70
2023/02/18 20:10:24;;;;;;;;;;;10.40;99.90;;;;;;8296488;28;19970;-70
2023/02/18 20:14:26;;;;;;;;;;;10.40;99.90;;;;;;8298679;28;19933;-70
2023/02/18 20:18:27;;;;;;;;;;;10.30;99.90;;;;;;8295538;28;19929;-70
2023/02/18 20:22:29;;;;;;;;;;;10.30;99.90;;;;;;8290660;28;20361;-70
2023/02/18 20:26:30;;;;;;;;;;;10.30;99.90;;;;;;8288676;28;19941;-69
2023/02/18 20:30:32;;;;;;;;;;;10.30;99.90;;;;;;8299875;28;19936;-70
2023/02/18 20:34:34;;;;;;;;;;;10.20;99.90;;;;;;8300365;28;19933;-70
2023/02/18 20:38:35;;;;;;;;;;;10.20;99.90;;;;;;8300804;28;19925;-70
2023/02/18 20:42:37;;;;;;;;;;;10.20;99.90;;;;;;8295926;28;20012;-70
2023/02/18 20:46:39;;;;;;;;;;;10.20;99.90;;;;;;8315922;28;20023;-69
2023/02/18 20:50:41;;;;;;;;;;;10.20;99.90;;;;;;8360360;28;20011;-70
2023/02/18 20:54:42;;;;;;;;;;;10.10;99.90;;;;;;8357593;28;19960;-70
2023/02/18 20:58:44;;;;;;;;;;;10.10;99.90;;;;;;8359829;28;19944;-70
2023/02/18 21:02:46;;;;;;;;;;;10.10;99.90;;;;;;8352551;28;20369;-70
2023/02/18 21:06:49;;;;;;;;;;;10.10;99.90;;;;;;8357584;28;20285;-70
2023/02/18 21:10:51;;;;;;;;;;;10.10;99.90;;;;;;8340915;28;19931;-70
2023/02/18 21:14:53;;;;;;;;;;;10.10;99.90;;;;;;8349215;28;19936;-70
2023/02/18 21:18:54;;;;;;;;;;;10.00;99.90;;;;;;8363375;28;19928;-70
2023/02/18 21:22:56;;;;;;;;;;;10.00;99.90;;;;;;8359818;28;19975;-70
2023/02/18 21:26:58;;;;;;;;;;;10.00;99.90;;;;;;8341977;28;19935;-70
2023/02/18 21:30:59;;;;;;;;;;;10.00;99.90;;;;;;8350946;28;19932;-70
2023/02/18 21:35:01;;;;;;;;;;;10.00;99.90;;;;;;8355787;28;19928;-70
2023/02/18 21:39:04;;;;;;;;;;;10.00;99.90;;;;;;8356774;28;20338;-70
2023/02/18 21:43:05;;;;;;;;;;;10.00;99.90;;;;;;8356340;28;19933;-70
2023/02/18 21:47:07;;;;;;;;;;;10.00;99.90;;;;;;8343662;28;20297;-70
2023/02/18 21:51:54;;;;;;;;;;;10.00;99.90;;;;;;8357410;28;19928;-70
2023/02/18 21:55:30;;;;;;;;;;;10.00;99.90;;;;;;8354396;28;19934;-70
2023/02/18 21:59:32;;;;;;;;;;;10.00;99.90;;;;;;8352506;28;19924;-69
2023/02/18 22:03:34;;;;;;;;;;;10.00;99.90;;;;;;8371152;28;20312;-69
2023/02/18 22:07:36;;;;;;;;;;;10.00;99.90;;;;;;8385518;28;20315;-70
2023/02/18 22:11:38;;;;;;;;;;;10.00;99.90;;;;;;8383560;28;19964;-70
2023/02/18 22:15:40;;;;;;;;;;;10.00;99.90;;;;;;8381109;28;19928;-70
2023/02/18 22:19:42;;;;;;;;;;;10.00;99.90;;;;;;8374564;28;19928;-70
2023/02/18 22:23:44;;;;;;;;;;;10.00;99.90;;;;;;8378828;28;20296;-70
2023/02/18 22:27:46;;;;;;;;;;;10.00;99.90;;;;;;8381576;28;20423;-70
2023/02/18 22:31:48;;;;;;;;;;;10.00;99.90;;;;;;8370588;28;19925;-70
2023/02/18 22:35:50;;;;;;;;;;;10.00;99.90;;;;;;8365597;28;19928;-70
2023/02/18 22:39:51;;;;;;;;;;;10.00;99.90;;;;;;8386134;28;19932;-70
2023/02/18 22:43:57;;;;;;;;;;;10.00;99.90;;;;;;8382481;28;20402;-70
2023/02/18 22:47:59;;;;;;;;;;;10.00;99.90;;;;;;8393121;28;19986;-70
2023/02/18 22:52:01;;;;;;;;;;;10.00;99.90;;;;;;8394230;28;19929;-69
2023/02/18 22:56:05;;;;;;;;;;;10.00;99.90;;;;;;8387558;28;19971;-70
2023/02/18 23:00:09;;;;;;;;;;;10.10;99.90;;;;;;8394110;28;19928;-70
2023/02/18 23:04:12;;;;;;;;;;;10.10;99.90;;;;;;8378696;28;19935;-70
2023/02/18 23:08:14;;;;;;;;;;;10.10;99.90;;;;;;8396125;28;19960;-70
2023/02/18 23:12:16;;;;;;;;;;;10.10;99.90;;;;;;8390041;28;19929;-70
2023/02/18 23:16:17;;;;;;;;;;;10.10;99.90;;;;;;8388614;28;20369;-70
2023/02/18 23:21:15;;;;;;;;;;;10.00;99.90;;;;;;8392897;28;20294;-70
2023/02/18 23:24:42;;;;;;;;;;;10.00;99.90;;;;;;8385894;28;19933;-70
2023/02/18 23:28:47;;;;;;;;;;;10.00;99.90;;;;;;8391349;28;19924;-70
2023/02/18 23:32:48;;;;;;;;;;;10.00;99.90;;;;;;8378537;28;20098;-70
2023/02/18 23:36:50;;;;;;;;;;;10.00;99.90;;;;;;8392485;28;19924;-70
2023/02/18 23:40:51;;;;;;;;;;;10.00;99.90;;;;;;8380855;28;20307;-70
2023/02/18 23:44:53;;;;;;;;;;;10.00;99.90;;;;;;8376447;28;19924;-70
2023/02/18 23:48:56;;;;;;;;;;;10.00;99.90;;;;;;8372780;28;19951;-70
2023/02/18 23:52:58;;;;;;;;;;;10.00;99.90;;;;;;8388984;28;19977;-70
2023/02/18 23:56:59;;;;;;;;;;;10.00;99.90;;;;;;8382006;28;19924;-70
